sensor_id;sensor_type;location;lat;lon;timestamp;pressure;altitude;pressure_sealevel;temperature;humidity
76124;BME280;65173;48.066;20.976;2022-11-15T06:32:39;100874.22;;;3.26;89.68
76124;BME280;65173;48.066;20.976;2022-11-15T07:09:56;100877.94;;;3.99;87.68
76124;BME280;65173;48.066;20.976;2022-11-15T07:13:18;100889.25;;;3.95;87.77
76124;BME280;65173;48.066;20.976;2022-11-15T07:16:40;100894.16;;;3.81;88.16
76124;BME280;65173;48.066;20.976;2022-11-15T07:20:01;100893.00;;;3.67;88.19
76124;BME280;65173;48.066;20.976;2022-11-15T07:23:23;100892.56;;;3.75;89.04
76124;BME280;65173;48.066;20.976;2022-11-15T07:26:44;100898.66;;;3.80;89.05
76124;BME280;65173;48.066;20.976;2022-11-15T07:30:05;100897.66;;;3.87;88.53
76124;BME280;65173;48.066;20.976;2022-11-15T07:33:26;100903.34;;;3.73;89.00
76124;BME280;65173;48.066;20.976;2022-11-15T07:36:48;100906.66;;;3.91;88.60
76124;BME280;65173;48.066;20.976;2022-11-15T07:40:10;100901.09;;;3.87;88.74
76124;BME280;65173;48.066;20.976;2022-11-15T07:43:32;100898.69;;;3.86;88.74
76124;BME280;65173;48.066;20.976;2022-11-15T07:46:54;100897.09;;;3.84;89.41
76124;BME280;65173;48.066;20.976;2022-11-15T07:50:16;100899.53;;;3.96;88.84
76124;BME280;65173;48.066;20.976;2022-11-15T07:54:06;100891.47;;;4.08;88.47
76124;BME280;65173;48.066;20.976;2022-11-15T07:57:27;100870.66;;;4.16;88.57
76124;BME280;65173;48.066;20.976;2022-11-15T08:00:49;100855.97;;;4.26;88.70
76124;BME280;65173;48.066;20.976;2022-11-15T08:04:11;100848.03;;;4.26;88.12
76124;BME280;65173;48.066;20.976;2022-11-15T08:07:32;100844.09;;;4.28;87.55
76124;BME280;65173;48.066;20.976;2022-11-15T08:10:54;100843.84;;;4.30;88.05
76124;BME280;65173;48.066;20.976;2022-11-15T08:14:15;100858.97;;;4.54;87.99
76124;BME280;65173;48.066;20.976;2022-11-15T08:17:36;100853.75;;;4.65;87.27
76124;BME280;65173;48.066;20.976;2022-11-15T08:21:01;100842.34;;;4.54;87.23
76124;BME280;65173;48.066;20.976;2022-11-15T08:24:22;100829.72;;;4.61;88.64
76124;BME280;65173;48.066;20.976;2022-11-15T08:27:44;100840.31;;;4.86;87.34
76124;BME280;65173;48.066;20.976;2022-11-15T08:31:06;100832.41;;;4.92;88.15
76124;BME280;65173;48.066;20.976;2022-11-15T08:34:28;100859.91;;;4.96;87.36
76124;BME280;65173;48.066;20.976;2022-11-15T08:37:55;100852.75;;;4.81;88.40
76124;BME280;65173;48.066;20.976;2022-11-15T08:41:31;100851.47;;;4.99;87.82
76124;BME280;65173;48.066;20.976;2022-11-15T08:44:53;100845.94;;;5.15;87.99
76124;BME280;65173;48.066;20.976;2022-11-15T08:48:13;100837.25;;;5.35;87.78
76124;BME280;65173;48.066;20.976;2022-11-15T08:51:35;100848.06;;;5.39;86.77
76124;BME280;65173;48.066;20.976;2022-11-15T08:54:57;100838.53;;;5.43;87.48
76124;BME280;65173;48.066;20.976;2022-11-15T08:58:19;100840.66;;;5.61;86.34
76124;BME280;65173;48.066;20.976;2022-11-15T09:01:40;100846.47;;;5.58;85.65
76124;BME280;65173;48.066;20.976;2022-11-15T09:05:02;100844.09;;;5.67;88.01
76124;BME280;65173;48.066;20.976;2022-11-15T09:08:24;100842.78;;;5.89;84.88
76124;BME280;65173;48.066;20.976;2022-11-15T09:12:13;100854.41;;;5.63;85.17
76124;BME280;65173;48.066;20.976;2022-11-15T09:15:34;100843.81;;;5.78;85.77
76124;BME280;65173;48.066;20.976;2022-11-15T09:18:56;100838.50;;;5.78;86.20
76124;BME280;65173;48.066;20.976;2022-11-15T09:22:16;100832.97;;;6.00;85.59
76124;BME280;65173;48.066;20.976;2022-11-15T09:25:38;100822.94;;;5.67;86.40
76124;BME280;65173;48.066;20.976;2022-11-15T09:28:59;100813.91;;;6.03;85.39
76124;BME280;65173;48.066;20.976;2022-11-15T09:32:22;100786.91;;;6.06;85.14
76124;BME280;65173;48.066;20.976;2022-11-15T09:35:43;100764.09;;;6.15;83.92
76124;BME280;65173;48.066;20.976;2022-11-15T09:39:05;100760.22;;;6.52;84.80
76124;BME280;65173;48.066;20.976;2022-11-15T09:46:33;100749.75;;;6.76;83.04
76124;BME280;65173;48.066;20.976;2022-11-15T09:50:17;100737.31;;;7.05;82.77
76124;BME280;65173;48.066;20.976;2022-11-15T09:53:29;100731.88;;;7.20;82.84
76124;BME280;65173;48.066;20.976;2022-11-15T10:00:27;100732.53;;;7.07;82.14
76124;BME280;65173;48.066;20.976;2022-11-15T10:03:50;100729.75;;;7.51;81.97
76124;BME280;65173;48.066;20.976;2022-11-15T10:07:01;100737.88;;;7.84;81.06
76124;BME280;65173;48.066;20.976;2022-11-15T10:10:36;100726.44;;;7.64;79.50
76124;BME280;65173;48.066;20.976;2022-11-15T10:13:44;100714.97;;;7.69;80.89
76124;BME280;65173;48.066;20.976;2022-11-15T10:17:14;100721.75;;;7.80;79.79
76124;BME280;65173;48.066;20.976;2022-11-15T10:23:26;100711.22;;;7.94;79.80
76124;BME280;65173;48.066;20.976;2022-11-15T10:26:29;100721.31;;;7.92;79.00
76124;BME280;65173;48.066;20.976;2022-11-15T10:29:32;100734.25;;;7.75;79.13
76124;BME280;65173;48.066;20.976;2022-11-15T10:32:36;100734.38;;;7.64;78.38
76124;BME280;65173;48.066;20.976;2022-11-15T10:35:38;100731.28;;;7.57;78.53
76124;BME280;65173;48.066;20.976;2022-11-15T10:41:53;100721.63;;;7.66;77.36
76124;BME280;65173;48.066;20.976;2022-11-15T10:44:56;100727.38;;;7.50;78.89
76124;BME280;65173;48.066;20.976;2022-11-15T10:51:24;100715.75;;;7.17;79.93
76124;BME280;65173;48.066;20.976;2022-11-15T10:57:39;100706.25;;;7.40;80.77
76124;BME280;65173;48.066;20.976;2022-11-15T11:00:46;100699.94;;;7.59;80.79
76124;BME280;65173;48.066;20.976;2022-11-15T11:04:02;100683.56;;;7.76;79.95
76124;BME280;65173;48.066;20.976;2022-11-15T11:07:20;100659.97;;;7.75;80.50
76124;BME280;65173;48.066;20.976;2022-11-15T11:10:25;100645.25;;;7.87;80.43
76124;BME280;65173;48.066;20.976;2022-11-15T11:13:48;100655.66;;;8.02;79.78
76124;BME280;65173;48.066;20.976;2022-11-15T11:40:39;100638.31;;;9.90;70.94
76124;BME280;65173;48.066;20.976;2022-11-15T11:46:59;100622.78;;;9.42;73.72
76124;BME280;65173;48.066;20.976;2022-11-15T11:50:25;100609.63;;;10.23;74.12
76124;BME280;65173;48.066;20.976;2022-11-15T11:53:45;100600.28;;;11.09;71.63
76124;BME280;65173;48.066;20.976;2022-11-15T11:56:50;100595.97;;;11.39;69.22
76124;BME280;65173;48.066;20.976;2022-11-15T12:03:15;100607.28;;;10.43;70.46
76124;BME280;65173;48.066;20.976;2022-11-15T12:06:45;100605.91;;;10.10;70.71
76124;BME280;65173;48.066;20.976;2022-11-15T12:09:58;100590.78;;;9.47;73.01
76124;BME280;65173;48.066;20.976;2022-11-15T12:13:08;100591.28;;;9.08;76.07
76124;BME280;65173;48.066;20.976;2022-11-15T12:16:22;100573.75;;;8.93;75.23
76124;BME280;65173;48.066;20.976;2022-11-15T12:19:26;100566.50;;;8.66;76.45
76124;BME280;65173;48.066;20.976;2022-11-15T12:22:41;100565.31;;;8.59;78.58
76124;BME280;65173;48.066;20.976;2022-11-15T12:25:50;100574.25;;;8.63;76.74
76124;BME280;65173;48.066;20.976;2022-11-15T12:28:57;100553.19;;;8.20;78.84
76124;BME280;65173;48.066;20.976;2022-11-15T12:32:34;100562.56;;;8.31;79.52
76124;BME280;65173;48.066;20.976;2022-11-15T12:35:41;100554.66;;;8.26;78.83
76124;BME280;65173;48.066;20.976;2022-11-15T12:39:01;100554.88;;;8.30;78.99
76124;BME280;65173;48.066;20.976;2022-11-15T12:45:44;100551.75;;;8.09;79.90
76124;BME280;65173;48.066;20.976;2022-11-15T12:48:52;100549.81;;;7.96;80.94
76124;BME280;65173;48.066;20.976;2022-11-15T12:55:08;100541.38;;;7.94;82.05
76124;BME280;65173;48.066;20.976;2022-11-15T12:58:41;100546.16;;;7.92;80.59
76124;BME280;65173;48.066;20.976;2022-11-15T13:04:48;100539.09;;;7.69;82.02
76124;BME280;65173;48.066;20.976;2022-11-15T13:07:58;100547.84;;;7.88;80.78
76124;BME280;65173;48.066;20.976;2022-11-15T13:14:50;100530.13;;;7.83;81.92
76124;BME280;65173;48.066;20.976;2022-11-15T13:17:55;100531.91;;;7.88;82.12
76124;BME280;65173;48.066;20.976;2022-11-15T13:21:00;100526.72;;;7.96;81.32
76124;BME280;65173;48.066;20.976;2022-11-15T13:24:04;100514.41;;;7.87;82.45
76124;BME280;65173;48.066;20.976;2022-11-15T13:27:18;100520.41;;;7.92;81.55
76124;BME280;65173;48.066;20.976;2022-11-15T13:30:24;100522.06;;;7.88;81.34
76124;BME280;65173;48.066;20.976;2022-11-15T13:33:33;100522.28;;;7.92;81.63
76124;BME280;65173;48.066;20.976;2022-11-15T13:36:37;100516.84;;;7.83;81.16
76124;BME280;65173;48.066;20.976;2022-11-15T13:39:40;100509.91;;;7.69;82.89
76124;BME280;65173;48.066;20.976;2022-11-15T13:42:43;100502.00;;;7.63;81.93
76124;BME280;65173;48.066;20.976;2022-11-15T13:49:14;100515.34;;;7.58;82.21
76124;BME280;65173;48.066;20.976;2022-11-15T13:52:17;100517.69;;;7.22;84.23
76124;BME280;65173;48.066;20.976;2022-11-15T13:55:21;100525.41;;;7.19;85.35
76124;BME280;65173;48.066;20.976;2022-11-15T13:58:25;100519.31;;;7.18;85.58
76124;BME280;65173;48.066;20.976;2022-11-15T14:01:31;100513.09;;;7.28;85.38
76124;BME280;65173;48.066;20.976;2022-11-15T14:04:34;100499.78;;;7.33;84.79
76124;BME280;65173;48.066;20.976;2022-11-15T14:07:36;100498.28;;;7.27;85.24
76124;BME280;65173;48.066;20.976;2022-11-15T14:10:46;100485.06;;;7.22;85.11
76124;BME280;65173;48.066;20.976;2022-11-15T14:17:20;100472.84;;;7.26;84.67
76124;BME280;65173;48.066;20.976;2022-11-15T14:23:30;100441.88;;;7.21;86.46
76124;BME280;65173;48.066;20.976;2022-11-15T14:26:34;100433.13;;;7.21;87.12
76124;BME280;65173;48.066;20.976;2022-11-15T14:29:37;100422.25;;;7.22;87.06
76124;BME280;65173;48.066;20.976;2022-11-15T14:32:47;100419.25;;;7.29;86.81
76124;BME280;65173;48.066;20.976;2022-11-15T14:35:51;100413.38;;;7.32;86.45
76124;BME280;65173;48.066;20.976;2022-11-15T14:38:54;100409.22;;;7.26;86.67
76124;BME280;65173;48.066;20.976;2022-11-15T14:41:57;100403.91;;;7.26;87.33
76124;BME280;65173;48.066;20.976;2022-11-15T14:44:59;100413.00;;;7.20;87.72
76124;BME280;65173;48.066;20.976;2022-11-15T14:48:02;100422.97;;;7.09;88.37
76124;BME280;65173;48.066;20.976;2022-11-15T14:51:24;100415.00;;;7.09;88.19
76124;BME280;65173;48.066;20.976;2022-11-15T14:54:26;100417.88;;;7.13;88.11
76124;BME280;65173;48.066;20.976;2022-11-15T14:57:29;100401.03;;;7.04;88.39
76124;BME280;65173;48.066;20.976;2022-11-15T15:00:32;100390.81;;;6.97;88.66
76124;BME280;65173;48.066;20.976;2022-11-15T15:03:36;100408.56;;;6.96;88.65
76124;BME280;65173;48.066;20.976;2022-11-15T15:06:39;100399.91;;;7.10;88.16
76124;BME280;65173;48.066;20.976;2022-11-15T15:09:42;100401.59;;;7.01;89.18
76124;BME280;65173;48.066;20.976;2022-11-15T15:12:45;100398.88;;;6.87;90.20
76124;BME280;65173;48.066;20.976;2022-11-15T15:15:49;100399.25;;;6.80;90.06
76124;BME280;65173;48.066;20.976;2022-11-15T15:18:52;100388.13;;;6.78;90.40
76124;BME280;65173;48.066;20.976;2022-11-15T15:21:54;100391.44;;;6.89;89.73
76124;BME280;65173;48.066;20.976;2022-11-15T15:24:57;100399.09;;;6.90;89.90
76124;BME280;65173;48.066;20.976;2022-11-15T15:27:59;100402.03;;;6.89;90.24
76124;BME280;65173;48.066;20.976;2022-11-15T15:31:03;100400.97;;;6.90;90.10
76124;BME280;65173;48.066;20.976;2022-11-15T15:34:06;100397.97;;;6.96;88.99
76124;BME280;65173;48.066;20.976;2022-11-15T15:37:26;100405.97;;;6.91;90.04
76124;BME280;65173;48.066;20.976;2022-11-15T15:40:30;100408.53;;;6.78;90.22
76124;BME280;65173;48.066;20.976;2022-11-15T15:43:33;100403.66;;;6.85;89.68
76124;BME280;65173;48.066;20.976;2022-11-15T15:46:36;100387.53;;;6.81;89.87
76124;BME280;65173;48.066;20.976;2022-11-15T15:49:39;100367.06;;;6.68;90.60
76124;BME280;65173;48.066;20.976;2022-11-15T15:52:42;100381.66;;;6.66;90.90
76124;BME280;65173;48.066;20.976;2022-11-15T15:55:44;100384.03;;;6.67;90.93
76124;BME280;65173;48.066;20.976;2022-11-15T15:58:47;100372.06;;;6.70;90.92
76124;BME280;65173;48.066;20.976;2022-11-15T16:01:50;100371.34;;;6.64;91.55
76124;BME280;65173;48.066;20.976;2022-11-15T16:04:53;100367.34;;;6.67;91.07
76124;BME280;65173;48.066;20.976;2022-11-15T16:07:55;100367.72;;;6.60;91.11
76124;BME280;65173;48.066;20.976;2022-11-15T16:10:58;100353.13;;;6.63;90.57
76124;BME280;65173;48.066;20.976;2022-11-15T16:14:01;100355.81;;;6.57;90.31
76124;BME280;65173;48.066;20.976;2022-11-15T16:17:04;100358.47;;;6.57;90.63
76124;BME280;65173;48.066;20.976;2022-11-15T16:20:06;100352.66;;;6.55;90.53
76124;BME280;65173;48.066;20.976;2022-11-15T16:23:14;100350.19;;;6.40;91.62
76124;BME280;65173;48.066;20.976;2022-11-15T16:26:21;100347.16;;;6.28;92.19
76124;BME280;65173;48.066;20.976;2022-11-15T16:29:24;100354.47;;;6.36;92.37
76124;BME280;65173;48.066;20.976;2022-11-15T16:32:26;100343.94;;;6.31;92.67
76124;BME280;65173;48.066;20.976;2022-11-15T16:35:29;100338.31;;;6.38;92.35
76124;BME280;65173;48.066;20.976;2022-11-15T16:38:32;100335.53;;;6.48;91.98
76124;BME280;65173;48.066;20.976;2022-11-15T16:41:35;100339.25;;;6.47;91.82
76124;BME280;65173;48.066;20.976;2022-11-15T16:44:38;100332.22;;;6.37;92.19
76124;BME280;65173;48.066;20.976;2022-11-15T16:47:40;100324.25;;;6.42;91.86
76124;BME280;65173;48.066;20.976;2022-11-15T16:50:45;100320.84;;;6.37;92.38
76124;BME280;65173;48.066;20.976;2022-11-15T16:53:48;100317.94;;;6.38;92.41
76124;BME280;65173;48.066;20.976;2022-11-15T16:56:51;100325.63;;;6.35;92.35
76124;BME280;65173;48.066;20.976;2022-11-15T16:59:55;100332.50;;;6.36;92.55
76124;BME280;65173;48.066;20.976;2022-11-15T17:02:58;100325.97;;;6.52;91.94
76124;BME280;65173;48.066;20.976;2022-11-15T17:06:00;100332.03;;;6.52;91.60
76124;BME280;65173;48.066;20.976;2022-11-15T17:09:03;100326.28;;;6.45;92.07
76124;BME280;65173;48.066;20.976;2022-11-15T17:12:07;100330.81;;;6.45;92.45
76124;BME280;65173;48.066;20.976;2022-11-15T17:15:11;100323.50;;;6.37;92.69
76124;BME280;65173;48.066;20.976;2022-11-15T17:18:14;100322.16;;;6.39;92.59
76124;BME280;65173;48.066;20.976;2022-11-15T17:21:19;100326.25;;;6.50;92.27
76124;BME280;65173;48.066;20.976;2022-11-15T17:24:23;100329.81;;;6.41;92.40
76124;BME280;65173;48.066;20.976;2022-11-15T17:27:25;100321.00;;;6.45;92.34
76124;BME280;65173;48.066;20.976;2022-11-15T17:30:29;100324.56;;;6.36;92.64
76124;BME280;65173;48.066;20.976;2022-11-15T17:33:31;100314.94;;;6.45;91.84
76124;BME280;65173;48.066;20.976;2022-11-15T17:36:34;100304.41;;;6.40;91.95
76124;BME280;65173;48.066;20.976;2022-11-15T17:39:37;100302.97;;;6.47;91.71
76124;BME280;65173;48.066;20.976;2022-11-15T17:42:40;100296.59;;;6.48;91.48
76124;BME280;65173;48.066;20.976;2022-11-15T17:45:43;100295.41;;;6.41;91.59
76124;BME280;65173;48.066;20.976;2022-11-15T17:48:47;100287.69;;;6.44;91.28
76124;BME280;65173;48.066;20.976;2022-11-15T17:51:51;100292.25;;;6.39;91.94
76124;BME280;65173;48.066;20.976;2022-11-15T17:54:54;100284.25;;;6.44;91.30
76124;BME280;65173;48.066;20.976;2022-11-15T17:57:56;100278.44;;;6.42;91.16
76124;BME280;65173;48.066;20.976;2022-11-15T18:04:09;100282.00;;;6.32;92.25
76124;BME280;65173;48.066;20.976;2022-11-15T18:07:12;100284.63;;;6.32;92.55
76124;BME280;65173;48.066;20.976;2022-11-15T18:10:16;100283.06;;;6.31;92.11
76124;BME280;65173;48.066;20.976;2022-11-15T18:13:18;100276.66;;;6.37;92.25
76124;BME280;65173;48.066;20.976;2022-11-15T18:16:23;100275.84;;;6.37;92.25
76124;BME280;65173;48.066;20.976;2022-11-15T18:19:29;100270.63;;;6.32;92.15
76124;BME280;65173;48.066;20.976;2022-11-15T18:22:31;100274.13;;;6.46;91.79
76124;BME280;65173;48.066;20.976;2022-11-15T18:25:34;100270.22;;;6.43;91.50
76124;BME280;65173;48.066;20.976;2022-11-15T18:28:38;100270.28;;;6.57;90.82
76124;BME280;65173;48.066;20.976;2022-11-15T18:31:42;100267.06;;;6.41;91.10
76124;BME280;65173;48.066;20.976;2022-11-15T18:34:49;100263.41;;;6.37;91.76
76124;BME280;65173;48.066;20.976;2022-11-15T18:37:52;100262.00;;;6.45;91.83
76124;BME280;65173;48.066;20.976;2022-11-15T18:41:07;100252.16;;;6.45;91.29
76124;BME280;65173;48.066;20.976;2022-11-15T18:44:11;100246.75;;;6.37;91.62
76124;BME280;65173;48.066;20.976;2022-11-15T18:47:13;100246.44;;;6.38;91.41
76124;BME280;65173;48.066;20.976;2022-11-15T18:50:16;100251.81;;;6.52;91.23
76124;BME280;65173;48.066;20.976;2022-11-15T18:53:19;100257.13;;;6.52;91.26
76124;BME280;65173;48.066;20.976;2022-11-15T18:56:22;100251.69;;;6.62;90.97
76124;BME280;65173;48.066;20.976;2022-11-15T18:59:26;100255.59;;;6.46;91.75
76124;BME280;65173;48.066;20.976;2022-11-15T19:02:29;100255.91;;;6.44;91.73
76124;BME280;65173;48.066;20.976;2022-11-15T19:05:31;100262.47;;;6.47;91.54
76124;BME280;65173;48.066;20.976;2022-11-15T19:08:37;100252.88;;;6.51;91.58
76124;BME280;65173;48.066;20.976;2022-11-15T19:11:40;100251.75;;;6.38;92.06
76124;BME280;65173;48.066;20.976;2022-11-15T19:14:43;100251.53;;;6.53;91.55
76124;BME280;65173;48.066;20.976;2022-11-15T19:17:45;100245.69;;;6.56;91.37
76124;BME280;65173;48.066;20.976;2022-11-15T19:20:48;100253.47;;;6.48;91.54
76124;BME280;65173;48.066;20.976;2022-11-15T19:23:52;100257.38;;;6.32;92.35
76124;BME280;65173;48.066;20.976;2022-11-15T19:26:55;100246.66;;;6.23;93.10
76124;BME280;65173;48.066;20.976;2022-11-15T19:29:58;100240.50;;;6.27;92.99
76124;BME280;65173;48.066;20.976;2022-11-15T19:33:01;100238.63;;;6.28;92.92
76124;BME280;65173;48.066;20.976;2022-11-15T19:36:15;100233.50;;;6.37;92.63
76124;BME280;65173;48.066;20.976;2022-11-15T19:39:18;100226.56;;;6.41;92.44
76124;BME280;65173;48.066;20.976;2022-11-15T19:42:21;100231.34;;;6.39;92.63
76124;BME280;65173;48.066;20.976;2022-11-15T19:45:24;100219.69;;;6.40;92.38
76124;BME280;65173;48.066;20.976;2022-11-15T19:48:28;100224.50;;;6.38;92.38
76124;BME280;65173;48.066;20.976;2022-11-15T19:51:31;100225.72;;;6.26;92.87
76124;BME280;65173;48.066;20.976;2022-11-15T19:54:35;100223.06;;;6.26;93.08
76124;BME280;65173;48.066;20.976;2022-11-15T19:57:37;100225.78;;;6.40;92.89
76124;BME280;65173;48.066;20.976;2022-11-15T20:00:41;100211.03;;;6.34;92.77
76124;BME280;65173;48.066;20.976;2022-11-15T20:03:48;100216.38;;;6.29;93.26
76124;BME280;65173;48.066;20.976;2022-11-15T20:06:51;100216.66;;;6.27;93.27
76124;BME280;65173;48.066;20.976;2022-11-15T20:09:54;100209.16;;;6.35;93.00
76124;BME280;65173;48.066;20.976;2022-11-15T20:12:57;100205.16;;;6.37;93.25
76124;BME280;65173;48.066;20.976;2022-11-15T20:15:59;100187.16;;;6.39;92.78
76124;BME280;65173;48.066;20.976;2022-11-15T20:19:02;100192.28;;;6.31;93.13
76124;BME280;65173;48.066;20.976;2022-11-15T20:22:05;100181.19;;;6.28;93.25
76124;BME280;65173;48.066;20.976;2022-11-15T20:25:08;100182.84;;;6.24;93.38
76124;BME280;65173;48.066;20.976;2022-11-15T20:28:19;100180.72;;;6.26;93.46
76124;BME280;65173;48.066;20.976;2022-11-15T20:31:22;100177.69;;;6.33;93.35
76124;BME280;65173;48.066;20.976;2022-11-15T20:34:24;100178.75;;;6.32;93.50
76124;BME280;65173;48.066;20.976;2022-11-15T20:37:27;100178.41;;;6.39;93.07
76124;BME280;65173;48.066;20.976;2022-11-15T20:40:31;100176.63;;;6.34;93.45
76124;BME280;65173;48.066;20.976;2022-11-15T20:43:34;100165.41;;;6.23;93.55
76124;BME280;65173;48.066;20.976;2022-11-15T20:46:37;100169.69;;;6.19;93.73
76124;BME280;65173;48.066;20.976;2022-11-15T20:49:40;100172.56;;;6.23;94.17
76124;BME280;65173;48.066;20.976;2022-11-15T20:52:43;100169.13;;;6.22;93.76
76124;BME280;65173;48.066;20.976;2022-11-15T20:55:48;100169.03;;;6.27;93.41
76124;BME280;65173;48.066;20.976;2022-11-15T20:58:51;100168.34;;;6.22;93.73
76124;BME280;65173;48.066;20.976;2022-11-15T21:01:54;100168.97;;;6.33;93.62
76124;BME280;65173;48.066;20.976;2022-11-15T21:04:57;100168.06;;;6.23;93.68
76124;BME280;65173;48.066;20.976;2022-11-15T21:08:00;100158.53;;;6.22;94.09
76124;BME280;65173;48.066;20.976;2022-11-15T21:11:07;100145.31;;;6.22;93.89
76124;BME280;65173;48.066;20.976;2022-11-15T21:14:28;100145.53;;;6.26;93.75
76124;BME280;65173;48.066;20.976;2022-11-15T21:17:31;100137.59;;;6.26;93.38
76124;BME280;65173;48.066;20.976;2022-11-15T21:20:33;100137.78;;;6.30;93.87
76124;BME280;65173;48.066;20.976;2022-11-15T21:23:36;100133.94;;;6.22;94.18
76124;BME280;65173;48.066;20.976;2022-11-15T21:26:39;100128.06;;;6.25;94.24
76124;BME280;65173;48.066;20.976;2022-11-15T21:29:41;100126.13;;;6.31;93.75
76124;BME280;65173;48.066;20.976;2022-11-15T21:32:47;100127.19;;;6.30;94.20
76124;BME280;65173;48.066;20.976;2022-11-15T21:35:50;100117.78;;;6.23;94.06
76124;BME280;65173;48.066;20.976;2022-11-15T21:38:53;100102.06;;;6.27;94.62
76124;BME280;65173;48.066;20.976;2022-11-15T21:41:55;100092.63;;;6.40;93.79
76124;BME280;65173;48.066;20.976;2022-11-15T21:44:58;100102.16;;;6.41;93.82
76124;BME280;65173;48.066;20.976;2022-11-15T21:48:00;100099.78;;;6.39;93.59
76124;BME280;65173;48.066;20.976;2022-11-15T21:51:06;100095.84;;;6.37;93.68
76124;BME280;65173;48.066;20.976;2022-11-15T21:54:09;100096.28;;;6.44;93.40
76124;BME280;65173;48.066;20.976;2022-11-15T21:57:12;100085.56;;;6.35;93.48
76124;BME280;65173;48.066;20.976;2022-11-15T22:00:15;100093.22;;;6.37;93.86
76124;BME280;65173;48.066;20.976;2022-11-15T22:03:37;100094.63;;;6.29;94.11
76124;BME280;65173;48.066;20.976;2022-11-15T22:06:40;100079.53;;;6.30;94.01
76124;BME280;65173;48.066;20.976;2022-11-15T22:09:42;100077.53;;;6.40;93.64
76124;BME280;65173;48.066;20.976;2022-11-15T22:12:45;100068.88;;;6.35;94.05
76124;BME280;65173;48.066;20.976;2022-11-15T22:15:48;100069.88;;;6.39;94.00
76124;BME280;65173;48.066;20.976;2022-11-15T22:18:52;100067.25;;;6.39;93.78
76124;BME280;65173;48.066;20.976;2022-11-15T22:21:55;100063.44;;;6.45;93.75
76124;BME280;65173;48.066;20.976;2022-11-15T22:24:58;100060.41;;;6.51;93.48
76124;BME280;65173;48.066;20.976;2022-11-15T22:28:01;100052.47;;;6.51;93.42
76124;BME280;65173;48.066;20.976;2022-11-15T22:31:04;100046.44;;;6.46;93.45
76124;BME280;65173;48.066;20.976;2022-11-15T22:34:07;100040.47;;;6.40;93.93
76124;BME280;65173;48.066;20.976;2022-11-15T22:37:10;100034.69;;;6.38;94.07
76124;BME280;65173;48.066;20.976;2022-11-15T22:40:22;100032.94;;;6.47;94.02
76124;BME280;65173;48.066;20.976;2022-11-15T22:43:26;100035.56;;;6.47;94.12
76124;BME280;65173;48.066;20.976;2022-11-15T22:46:28;100026.06;;;6.46;93.97
76124;BME280;65173;48.066;20.976;2022-11-15T22:49:31;100030.28;;;6.47;94.03
76124;BME280;65173;48.066;20.976;2022-11-15T22:52:34;100021.56;;;6.47;93.88
76124;BME280;65173;48.066;20.976;2022-11-15T22:55:38;100026.47;;;6.53;94.00
76124;BME280;65173;48.066;20.976;2022-11-15T22:58:40;100027.91;;;6.46;93.96
76124;BME280;65173;48.066;20.976;2022-11-15T23:01:43;100024.31;;;6.55;93.83
76124;BME280;65173;48.066;20.976;2022-11-15T23:04:46;100023.25;;;6.56;93.82
76124;BME280;65173;48.066;20.976;2022-11-15T23:07:48;100014.72;;;6.59;93.68
76124;BME280;65173;48.066;20.976;2022-11-15T23:10:52;100019.34;;;6.68;93.39
76124;BME280;65173;48.066;20.976;2022-11-15T23:14:33;100012.19;;;6.68;93.18
76124;BME280;65173;48.066;20.976;2022-11-15T23:17:55;100007.94;;;6.67;93.24
76124;BME280;65173;48.066;20.976;2022-11-15T23:21:23;100002.06;;;6.56;93.70
76124;BME280;65173;48.066;20.976;2022-11-15T23:25:05;99997.16;;;6.63;93.86
76124;BME280;65173;48.066;20.976;2022-11-15T23:28:08;99994.81;;;6.62;93.68
76124;BME280;65173;48.066;20.976;2022-11-15T23:31:10;99991.00;;;6.68;93.33
76124;BME280;65173;48.066;20.976;2022-11-15T23:34:35;99985.09;;;6.71;93.31
76124;BME280;65173;48.066;20.976;2022-11-15T23:37:38;99994.13;;;6.70;93.18
76124;BME280;65173;48.066;20.976;2022-11-15T23:40:41;99984.53;;;6.74;92.83
76124;BME280;65173;48.066;20.976;2022-11-15T23:43:44;99986.28;;;6.65;93.13
76124;BME280;65173;48.066;20.976;2022-11-15T23:46:46;99985.09;;;6.57;93.56
76124;BME280;65173;48.066;20.976;2022-11-15T23:49:49;99982.53;;;6.52;93.94
76124;BME280;65173;48.066;20.976;2022-11-15T23:52:52;99983.13;;;6.63;93.67
76124;BME280;65173;48.066;20.976;2022-11-15T23:56:06;99971.16;;;6.66;93.50
76124;BME280;65173;48.066;20.976;2022-11-15T23:59:09;99966.66;;;6.66;93.39
